sensor_id;sensor_type;location;lat;lon;timestamp;P1;durP1;ratioP1;P2;durP2;ratioP2
53751;SDS011;41095;53.090;6.692;2022-11-04T00:01:32;12.50;;;10.15;;
53751;SDS011;41095;53.090;6.692;2022-11-04T00:04:01;12.23;;;9.98;;
53751;SDS011;41095;53.090;6.692;2022-11-04T00:06:27;14.02;;;10.75;;
53751;SDS011;41095;53.090;6.692;2022-11-04T00:08:53;15.23;;;11.20;;
53751;SDS011;41095;53.090;6.692;2022-11-04T00:11:20;14.60;;;8.68;;
53751;SDS011;41095;53.090;6.692;2022-11-04T00:14:05;14.13;;;9.95;;
53751;SDS011;41095;53.090;6.692;2022-11-04T00:16:33;11.75;;;9.77;;
53751;SDS011;41095;53.090;6.692;2022-11-04T00:19:18;11.77;;;9.00;;
53751;SDS011;41095;53.090;6.692;2022-11-04T00:21:43;13.02;;;9.32;;
53751;SDS011;41095;53.090;6.692;2022-11-04T00:24:28;12.23;;;8.98;;
53751;SDS011;41095;53.090;6.692;2022-11-04T00:29:54;9.73;;;7.75;;
53751;SDS011;41095;53.090;6.692;2022-11-04T00:32:20;10.65;;;8.25;;
53751;SDS011;41095;53.090;6.692;2022-11-04T00:35:05;13.85;;;7.63;;
53751;SDS011;41095;53.090;6.692;2022-11-04T00:37:34;8.52;;;7.22;;
53751;SDS011;41095;53.090;6.692;2022-11-04T00:40:01;10.63;;;7.97;;
53751;SDS011;41095;53.090;6.692;2022-11-04T00:42:27;9.85;;;7.65;;
53751;SDS011;41095;53.090;6.692;2022-11-04T00:44:52;8.85;;;7.25;;
53751;SDS011;41095;53.090;6.692;2022-11-04T00:47:18;9.38;;;6.18;;
53751;SDS011;41095;53.090;6.692;2022-11-04T00:49:44;7.60;;;4.97;;
53751;SDS011;41095;53.090;6.692;2022-11-04T00:52:09;6.35;;;5.55;;
53751;SDS011;41095;53.090;6.692;2022-11-04T00:54:35;6.05;;;4.75;;
53751;SDS011;41095;53.090;6.692;2022-11-04T00:57:01;3.92;;;3.53;;
53751;SDS011;41095;53.090;6.692;2022-11-04T00:59:26;3.97;;;3.10;;
53751;SDS011;41095;53.090;6.692;2022-11-04T01:01:52;3.50;;;3.03;;
53751;SDS011;41095;53.090;6.692;2022-11-04T01:04:18;1.98;;;1.77;;
53751;SDS011;41095;53.090;6.692;2022-11-04T01:06:44;2.88;;;2.20;;
53751;SDS011;41095;53.090;6.692;2022-11-04T01:09:09;1.65;;;1.55;;
53751;SDS011;41095;53.090;6.692;2022-11-04T01:11:36;1.70;;;1.45;;
53751;SDS011;41095;53.090;6.692;2022-11-04T01:14:02;3.67;;;1.40;;
53751;SDS011;41095;53.090;6.692;2022-11-04T01:16:29;2.95;;;1.75;;
53751;SDS011;41095;53.090;6.692;2022-11-04T01:18:55;1.60;;;1.50;;
53751;SDS011;41095;53.090;6.692;2022-11-04T01:21:20;2.05;;;1.20;;
53751;SDS011;41095;53.090;6.692;2022-11-04T01:23:46;1.10;;;1.00;;
53751;SDS011;41095;53.090;6.692;2022-11-04T01:26:13;1.17;;;1.00;;
53751;SDS011;41095;53.090;6.692;2022-11-04T01:28:41;0.75;;;0.75;;
53751;SDS011;41095;53.090;6.692;2022-11-04T01:31:11;0.90;;;0.70;;
53751;SDS011;41095;53.090;6.692;2022-11-04T01:33:38;2.10;;;1.20;;
53751;SDS011;41095;53.090;6.692;2022-11-04T01:36:04;4.70;;;1.30;;
53751;SDS011;41095;53.090;6.692;2022-11-04T01:38:31;1.60;;;1.05;;
53751;SDS011;41095;53.090;6.692;2022-11-04T01:40:57;1.27;;;1.20;;
53751;SDS011;41095;53.090;6.692;2022-11-04T01:43:30;1.33;;;1.10;;
53751;SDS011;41095;53.090;6.692;2022-11-04T01:46:07;1.45;;;0.93;;
53751;SDS011;41095;53.090;6.692;2022-11-04T01:48:35;1.05;;;0.82;;
53751;SDS011;41095;53.090;6.692;2022-11-04T01:51:01;2.35;;;1.05;;
53751;SDS011;41095;53.090;6.692;2022-11-04T01:53:29;2.20;;;1.40;;
53751;SDS011;41095;53.090;6.692;2022-11-04T01:55:58;1.67;;;0.93;;
53751;SDS011;41095;53.090;6.692;2022-11-04T01:58:28;1.67;;;0.80;;
53751;SDS011;41095;53.090;6.692;2022-11-04T02:00:57;1.30;;;0.70;;
53751;SDS011;41095;53.090;6.692;2022-11-04T02:03:24;1.17;;;0.60;;
53751;SDS011;41095;53.090;6.692;2022-11-04T02:05:54;0.65;;;0.65;;
53751;SDS011;41095;53.090;6.692;2022-11-04T02:08:21;1.58;;;0.47;;
53751;SDS011;41095;53.090;6.692;2022-11-04T02:10:49;1.75;;;0.75;;
53751;SDS011;41095;53.090;6.692;2022-11-04T02:13:20;1.38;;;1.00;;
53751;SDS011;41095;53.090;6.692;2022-11-04T02:15:54;2.92;;;0.55;;
53751;SDS011;41095;53.090;6.692;2022-11-04T02:21:38;3.03;;;0.80;;
53751;SDS011;41095;53.090;6.692;2022-11-04T02:30:05;1.85;;;0.68;;
53751;SDS011;41095;53.090;6.692;2022-11-04T02:40:17;2.75;;;0.80;;
53751;SDS011;41095;53.090;6.692;2022-11-04T02:43:08;1.98;;;0.80;;
53751;SDS011;41095;53.090;6.692;2022-11-04T02:45:46;2.22;;;1.05;;
53751;SDS011;41095;53.090;6.692;2022-11-04T02:48:23;4.68;;;1.15;;
53751;SDS011;41095;53.090;6.692;2022-11-04T02:56:12;1.92;;;1.60;;
53751;SDS011;41095;53.090;6.692;2022-11-04T02:58:41;1.17;;;0.90;;
53751;SDS011;41095;53.090;6.692;2022-11-04T03:01:30;2.88;;;0.88;;
53751;SDS011;41095;53.090;6.692;2022-11-04T03:04:04;4.57;;;0.75;;
53751;SDS011;41095;53.090;6.692;2022-11-04T03:06:34;2.38;;;0.77;;
53751;SDS011;41095;53.090;6.692;2022-11-04T03:09:01;2.05;;;0.80;;
53751;SDS011;41095;53.090;6.692;2022-11-04T03:11:28;2.10;;;1.02;;
53751;SDS011;41095;53.090;6.692;2022-11-04T03:14:00;3.38;;;0.82;;
53751;SDS011;41095;53.090;6.692;2022-11-04T03:19:12;1.92;;;0.88;;
53751;SDS011;41095;53.090;6.692;2022-11-04T03:21:41;0.63;;;0.52;;
53751;SDS011;41095;53.090;6.692;2022-11-04T03:24:13;4.43;;;0.75;;
53751;SDS011;41095;53.090;6.692;2022-11-04T03:26:48;1.90;;;0.75;;
53751;SDS011;41095;53.090;6.692;2022-11-04T03:29:53;1.30;;;0.90;;
53751;SDS011;41095;53.090;6.692;2022-11-04T03:32:27;2.08;;;0.80;;
53751;SDS011;41095;53.090;6.692;2022-11-04T03:35:06;2.92;;;0.65;;
53751;SDS011;41095;53.090;6.692;2022-11-04T03:37:33;0.57;;;0.50;;
53751;SDS011;41095;53.090;6.692;2022-11-04T03:39:59;2.70;;;0.65;;
53751;SDS011;41095;53.090;6.692;2022-11-04T03:42:26;0.77;;;0.50;;
53751;SDS011;41095;53.090;6.692;2022-11-04T03:44:53;3.08;;;0.73;;
53751;SDS011;41095;53.090;6.692;2022-11-04T03:47:24;1.15;;;0.57;;
53751;SDS011;41095;53.090;6.692;2022-11-04T03:49:54;3.08;;;0.60;;
53751;SDS011;41095;53.090;6.692;2022-11-04T03:52:26;2.17;;;0.95;;
53751;SDS011;41095;53.090;6.692;2022-11-04T03:54:52;3.35;;;0.60;;
53751;SDS011;41095;53.090;6.692;2022-11-04T04:00:16;2.05;;;0.70;;
53751;SDS011;41095;53.090;6.692;2022-11-04T04:10:56;1.13;;;0.63;;
53751;SDS011;41095;53.090;6.692;2022-11-04T04:13:36;1.10;;;1.00;;
53751;SDS011;41095;53.090;6.692;2022-11-04T04:16:09;2.67;;;0.70;;
53751;SDS011;41095;53.090;6.692;2022-11-04T04:18:41;1.67;;;0.57;;
53751;SDS011;41095;53.090;6.692;2022-11-04T04:21:14;2.00;;;0.80;;
53751;SDS011;41095;53.090;6.692;2022-11-04T04:23:45;1.67;;;1.17;;
53751;SDS011;41095;53.090;6.692;2022-11-04T04:26:33;1.23;;;0.65;;
53751;SDS011;41095;53.090;6.692;2022-11-04T04:29:22;2.55;;;0.88;;
53751;SDS011;41095;53.090;6.692;2022-11-04T04:31:49;1.77;;;0.80;;
53751;SDS011;41095;53.090;6.692;2022-11-04T04:34:23;3.60;;;0.73;;
53751;SDS011;41095;53.090;6.692;2022-11-04T04:37:01;3.22;;;0.90;;
53751;SDS011;41095;53.090;6.692;2022-11-04T04:39:32;0.73;;;0.60;;
53751;SDS011;41095;53.090;6.692;2022-11-04T04:42:21;1.70;;;0.88;;
53751;SDS011;41095;53.090;6.692;2022-11-04T04:45:06;2.60;;;0.93;;
53751;SDS011;41095;53.090;6.692;2022-11-04T04:47:42;1.77;;;0.80;;
53751;SDS011;41095;53.090;6.692;2022-11-04T04:50:10;0.90;;;0.77;;
53751;SDS011;41095;53.090;6.692;2022-11-04T04:52:40;1.45;;;0.68;;
53751;SDS011;41095;53.090;6.692;2022-11-04T04:55:09;2.53;;;1.05;;
53751;SDS011;41095;53.090;6.692;2022-11-04T04:57:35;1.75;;;0.70;;
53751;SDS011;41095;53.090;6.692;2022-11-04T05:00:02;0.73;;;0.55;;
53751;SDS011;41095;53.090;6.692;2022-11-04T05:02:29;1.63;;;0.70;;
53751;SDS011;41095;53.090;6.692;2022-11-04T05:04:54;0.75;;;0.60;;
53751;SDS011;41095;53.090;6.692;2022-11-04T05:07:20;6.03;;;0.90;;
53751;SDS011;41095;53.090;6.692;2022-11-04T05:09:46;1.13;;;0.90;;
53751;SDS011;41095;53.090;6.692;2022-11-04T05:12:12;1.15;;;0.75;;
53751;SDS011;41095;53.090;6.692;2022-11-04T05:14:37;2.08;;;0.68;;
53751;SDS011;41095;53.090;6.692;2022-11-04T05:17:03;1.30;;;0.55;;
53751;SDS011;41095;53.090;6.692;2022-11-04T05:19:29;0.75;;;0.60;;
53751;SDS011;41095;53.090;6.692;2022-11-04T05:21:54;0.93;;;0.40;;
53751;SDS011;41095;53.090;6.692;2022-11-04T05:24:20;1.02;;;0.50;;
53751;SDS011;41095;53.090;6.692;2022-11-04T05:26:46;1.13;;;0.63;;
53751;SDS011;41095;53.090;6.692;2022-11-04T05:29:11;0.55;;;0.55;;
53751;SDS011;41095;53.090;6.692;2022-11-04T05:31:37;0.82;;;0.47;;
53751;SDS011;41095;53.090;6.692;2022-11-04T05:34:03;3.55;;;0.63;;
53751;SDS011;41095;53.090;6.692;2022-11-04T05:36:30;1.13;;;0.60;;
53751;SDS011;41095;53.090;6.692;2022-11-04T05:38:57;0.77;;;0.55;;
53751;SDS011;41095;53.090;6.692;2022-11-04T05:41:23;0.80;;;0.70;;
53751;SDS011;41095;53.090;6.692;2022-11-04T05:44:01;1.58;;;0.88;;
53751;SDS011;41095;53.090;6.692;2022-11-04T05:46:28;0.88;;;0.57;;
53751;SDS011;41095;53.090;6.692;2022-11-04T05:48:54;1.95;;;0.55;;
53751;SDS011;41095;53.090;6.692;2022-11-04T05:51:22;3.70;;;0.90;;
53751;SDS011;41095;53.090;6.692;2022-11-04T05:53:52;0.90;;;0.60;;
53751;SDS011;41095;53.090;6.692;2022-11-04T05:56:18;3.33;;;0.70;;
53751;SDS011;41095;53.090;6.692;2022-11-04T05:58:44;1.67;;;0.50;;
53751;SDS011;41095;53.090;6.692;2022-11-04T06:01:10;0.85;;;0.60;;
53751;SDS011;41095;53.090;6.692;2022-11-04T06:03:51;1.23;;;0.70;;
53751;SDS011;41095;53.090;6.692;2022-11-04T06:06:18;4.13;;;0.88;;
53751;SDS011;41095;53.090;6.692;2022-11-04T06:08:44;1.65;;;0.85;;
53751;SDS011;41095;53.090;6.692;2022-11-04T06:11:10;0.70;;;0.70;;
53751;SDS011;41095;53.090;6.692;2022-11-04T06:13:36;1.92;;;0.93;;
53751;SDS011;41095;53.090;6.692;2022-11-04T06:16:01;1.10;;;1.00;;
53751;SDS011;41095;53.090;6.692;2022-11-04T06:18:27;1.65;;;0.80;;
53751;SDS011;41095;53.090;6.692;2022-11-04T06:21:38;0.68;;;0.40;;
53751;SDS011;41095;53.090;6.692;2022-11-04T06:23:41;1.10;;;0.63;;
53751;SDS011;41095;53.090;6.692;2022-11-04T06:26:08;1.52;;;0.70;;
53751;SDS011;41095;53.090;6.692;2022-11-04T06:28:34;1.77;;;0.70;;
53751;SDS011;41095;53.090;6.692;2022-11-04T06:31:01;1.20;;;0.57;;
53751;SDS011;41095;53.090;6.692;2022-11-04T06:33:28;1.52;;;0.90;;
53751;SDS011;41095;53.090;6.692;2022-11-04T06:36:00;1.23;;;1.13;;
53751;SDS011;41095;53.090;6.692;2022-11-04T06:38:28;2.40;;;0.82;;
53751;SDS011;41095;53.090;6.692;2022-11-04T06:40:56;1.88;;;0.65;;
53751;SDS011;41095;53.090;6.692;2022-11-04T06:43:22;0.52;;;0.52;;
53751;SDS011;41095;53.090;6.692;2022-11-04T06:45:54;1.55;;;1.17;;
53751;SDS011;41095;53.090;6.692;2022-11-04T06:48:21;1.63;;;0.50;;
53751;SDS011;41095;53.090;6.692;2022-11-04T06:50:47;5.03;;;1.25;;
53751;SDS011;41095;53.090;6.692;2022-11-04T06:53:12;1.23;;;0.85;;
53751;SDS011;41095;53.090;6.692;2022-11-04T06:55:38;1.13;;;0.73;;
53751;SDS011;41095;53.090;6.692;2022-11-04T06:58:05;0.77;;;0.68;;
53751;SDS011;41095;53.090;6.692;2022-11-04T07:00:31;1.63;;;0.90;;
53751;SDS011;41095;53.090;6.692;2022-11-04T07:02:56;0.70;;;0.68;;
53751;SDS011;41095;53.090;6.692;2022-11-04T07:05:22;2.42;;;0.80;;
53751;SDS011;41095;53.090;6.692;2022-11-04T07:07:48;2.40;;;0.77;;
53751;SDS011;41095;53.090;6.692;2022-11-04T07:10:14;1.55;;;0.60;;
53751;SDS011;41095;53.090;6.692;2022-11-04T07:12:39;1.50;;;0.70;;
53751;SDS011;41095;53.090;6.692;2022-11-04T07:15:05;2.00;;;0.77;;
53751;SDS011;41095;53.090;6.692;2022-11-04T07:17:31;2.63;;;1.00;;
53751;SDS011;41095;53.090;6.692;2022-11-04T07:19:57;1.67;;;0.80;;
53751;SDS011;41095;53.090;6.692;2022-11-04T07:22:23;2.63;;;0.90;;
53751;SDS011;41095;53.090;6.692;2022-11-04T07:24:48;0.60;;;0.60;;
53751;SDS011;41095;53.090;6.692;2022-11-04T07:27:14;1.25;;;0.63;;
53751;SDS011;41095;53.090;6.692;2022-11-04T07:29:40;1.38;;;0.57;;
53751;SDS011;41095;53.090;6.692;2022-11-04T07:32:05;1.70;;;1.20;;
53751;SDS011;41095;53.090;6.692;2022-11-04T07:34:31;1.90;;;0.65;;
53751;SDS011;41095;53.090;6.692;2022-11-04T07:36:57;0.88;;;0.73;;
53751;SDS011;41095;53.090;6.692;2022-11-04T07:39:22;1.75;;;0.90;;
53751;SDS011;41095;53.090;6.692;2022-11-04T07:41:48;1.38;;;0.70;;
53751;SDS011;41095;53.090;6.692;2022-11-04T07:44:14;1.90;;;0.80;;
53751;SDS011;41095;53.090;6.692;2022-11-04T07:46:40;4.22;;;1.00;;
53751;SDS011;41095;53.090;6.692;2022-11-04T07:49:06;1.80;;;1.20;;
53751;SDS011;41095;53.090;6.692;2022-11-04T07:51:32;1.67;;;0.75;;
53751;SDS011;41095;53.090;6.692;2022-11-04T07:53:58;1.77;;;1.15;;
53751;SDS011;41095;53.090;6.692;2022-11-04T07:56:24;1.75;;;1.05;;
53751;SDS011;41095;53.090;6.692;2022-11-04T07:58:51;1.90;;;0.98;;
53751;SDS011;41095;53.090;6.692;2022-11-04T08:01:18;0.98;;;0.75;;
53751;SDS011;41095;53.090;6.692;2022-11-04T08:03:45;0.98;;;0.90;;
53751;SDS011;41095;53.090;6.692;2022-11-04T08:06:12;1.25;;;0.70;;
53751;SDS011;41095;53.090;6.692;2022-11-04T08:08:39;2.88;;;0.95;;
53751;SDS011;41095;53.090;6.692;2022-11-04T08:11:09;1.65;;;1.00;;
53751;SDS011;41095;53.090;6.692;2022-11-04T08:13:37;5.03;;;1.02;;
53751;SDS011;41095;53.090;6.692;2022-11-04T08:16:04;1.95;;;1.20;;
53751;SDS011;41095;53.090;6.692;2022-11-04T08:18:33;3.13;;;0.80;;
53751;SDS011;41095;53.090;6.692;2022-11-04T08:21:00;1.75;;;1.00;;
53751;SDS011;41095;53.090;6.692;2022-11-04T08:23:26;0.60;;;0.60;;
53751;SDS011;41095;53.090;6.692;2022-11-04T08:25:52;1.92;;;1.08;;
53751;SDS011;41095;53.090;6.692;2022-11-04T08:28:18;2.80;;;0.82;;
53751;SDS011;41095;53.090;6.692;2022-11-04T08:30:50;3.13;;;1.30;;
53751;SDS011;41095;53.090;6.692;2022-11-04T08:33:16;5.50;;;1.47;;
53751;SDS011;41095;53.090;6.692;2022-11-04T08:35:42;1.30;;;1.10;;
53751;SDS011;41095;53.090;6.692;2022-11-04T08:38:07;1.33;;;0.88;;
53751;SDS011;41095;53.090;6.692;2022-11-04T08:40:34;1.23;;;0.82;;
53751;SDS011;41095;53.090;6.692;2022-11-04T08:43:00;1.55;;;1.00;;
53751;SDS011;41095;53.090;6.692;2022-11-04T08:45:26;1.40;;;1.17;;
53751;SDS011;41095;53.090;6.692;2022-11-04T08:47:52;2.90;;;1.10;;
53751;SDS011;41095;53.090;6.692;2022-11-04T08:50:17;2.33;;;1.45;;
53751;SDS011;41095;53.090;6.692;2022-11-04T08:52:43;1.00;;;1.00;;
53751;SDS011;41095;53.090;6.692;2022-11-04T08:55:09;1.85;;;1.27;;
53751;SDS011;41095;53.090;6.692;2022-11-04T08:57:35;1.02;;;0.93;;
53751;SDS011;41095;53.090;6.692;2022-11-04T09:00:01;1.40;;;1.30;;
53751;SDS011;41095;53.090;6.692;2022-11-04T09:02:28;3.00;;;1.15;;
53751;SDS011;41095;53.090;6.692;2022-11-04T09:04:54;3.47;;;1.40;;
53751;SDS011;41095;53.090;6.692;2022-11-04T09:07:19;1.83;;;1.10;;
53751;SDS011;41095;53.090;6.692;2022-11-04T09:09:45;1.52;;;0.82;;
53751;SDS011;41095;53.090;6.692;2022-11-04T09:12:10;1.08;;;1.00;;
53751;SDS011;41095;53.090;6.692;2022-11-04T09:14:37;0.70;;;0.60;;
53751;SDS011;41095;53.090;6.692;2022-11-04T09:17:02;3.20;;;1.45;;
53751;SDS011;41095;53.090;6.692;2022-11-04T09:19:28;1.27;;;0.93;;
53751;SDS011;41095;53.090;6.692;2022-11-04T09:21:54;1.17;;;0.70;;
53751;SDS011;41095;53.090;6.692;2022-11-04T09:24:19;3.55;;;1.10;;
53751;SDS011;41095;53.090;6.692;2022-11-04T09:26:45;1.95;;;0.90;;
53751;SDS011;41095;53.090;6.692;2022-11-04T09:29:11;2.90;;;1.17;;
53751;SDS011;41095;53.090;6.692;2022-11-04T09:31:36;2.20;;;0.85;;
53751;SDS011;41095;53.090;6.692;2022-11-04T09:34:02;4.07;;;1.10;;
53751;SDS011;41095;53.090;6.692;2022-11-04T09:36:28;1.20;;;0.90;;
53751;SDS011;41095;53.090;6.692;2022-11-04T09:38:54;1.90;;;1.10;;
53751;SDS011;41095;53.090;6.692;2022-11-04T09:47:02;0.98;;;0.55;;
53751;SDS011;41095;53.090;6.692;2022-11-04T09:49:29;1.65;;;0.80;;
53751;SDS011;41095;53.090;6.692;2022-11-04T09:52:00;1.58;;;1.02;;
53751;SDS011;41095;53.090;6.692;2022-11-04T09:54:51;2.33;;;1.15;;
53751;SDS011;41095;53.090;6.692;2022-11-04T09:57:22;1.55;;;1.30;;
53751;SDS011;41095;53.090;6.692;2022-11-04T09:59:48;0.80;;;0.80;;
53751;SDS011;41095;53.090;6.692;2022-11-04T10:18:59;1.67;;;0.70;;
53751;SDS011;41095;53.090;6.692;2022-11-04T10:21:43;7.00;;;1.70;;
53751;SDS011;41095;53.090;6.692;2022-11-04T10:24:40;1.33;;;0.95;;
53751;SDS011;41095;53.090;6.692;2022-11-04T10:27:13;2.05;;;1.23;;
53751;SDS011;41095;53.090;6.692;2022-11-04T10:29:52;2.50;;;0.75;;
53751;SDS011;41095;53.090;6.692;2022-11-04T10:32:30;1.00;;;0.63;;
53751;SDS011;41095;53.090;6.692;2022-11-04T10:37:53;1.08;;;0.90;;
53751;SDS011;41095;53.090;6.692;2022-11-04T10:40:24;1.42;;;0.82;;
53751;SDS011;41095;53.090;6.692;2022-11-04T10:42:57;0.70;;;0.70;;
53751;SDS011;41095;53.090;6.692;2022-11-04T10:45:26;6.40;;;1.02;;
53751;SDS011;41095;53.090;6.692;2022-11-04T10:48:05;2.55;;;0.88;;
53751;SDS011;41095;53.090;6.692;2022-11-04T10:50:48;1.50;;;0.90;;
53751;SDS011;41095;53.090;6.692;2022-11-04T10:53:18;1.40;;;0.85;;
53751;SDS011;41095;53.090;6.692;2022-11-04T10:58:30;3.50;;;0.98;;
53751;SDS011;41095;53.090;6.692;2022-11-04T11:00:59;0.95;;;0.82;;
53751;SDS011;41095;53.090;6.692;2022-11-04T11:03:51;1.65;;;1.10;;
53751;SDS011;41095;53.090;6.692;2022-11-04T11:08:55;1.65;;;1.05;;
53751;SDS011;41095;53.090;6.692;2022-11-04T11:14:15;1.95;;;1.10;;
53751;SDS011;41095;53.090;6.692;2022-11-04T11:16:56;2.33;;;1.10;;
53751;SDS011;41095;53.090;6.692;2022-11-04T11:20:27;3.72;;;2.47;;
53751;SDS011;41095;53.090;6.692;2022-11-04T11:22:43;0.73;;;0.73;;
53751;SDS011;41095;53.090;6.692;2022-11-04T11:25:28;2.05;;;0.90;;
53751;SDS011;41095;53.090;6.692;2022-11-04T11:27:59;2.08;;;1.13;;
53751;SDS011;41095;53.090;6.692;2022-11-04T11:30:30;3.53;;;1.15;;
53751;SDS011;41095;53.090;6.692;2022-11-04T11:33:01;3.90;;;1.25;;
53751;SDS011;41095;53.090;6.692;2022-11-04T11:35:38;2.88;;;1.70;;
53751;SDS011;41095;53.090;6.692;2022-11-04T11:38:14;2.35;;;1.00;;
53751;SDS011;41095;53.090;6.692;2022-11-04T11:40:43;1.77;;;0.88;;
53751;SDS011;41095;53.090;6.692;2022-11-04T11:43:21;3.10;;;1.15;;
53751;SDS011;41095;53.090;6.692;2022-11-04T11:45:52;4.05;;;1.23;;
53751;SDS011;41095;53.090;6.692;2022-11-04T11:48:28;2.80;;;1.15;;
53751;SDS011;41095;53.090;6.692;2022-11-04T11:50:55;1.90;;;0.93;;
53751;SDS011;41095;53.090;6.692;2022-11-04T11:53:25;4.55;;;1.67;;
53751;SDS011;41095;53.090;6.692;2022-11-04T11:58:55;1.65;;;0.98;;
53751;SDS011;41095;53.090;6.692;2022-11-04T12:01:50;1.50;;;0.82;;
53751;SDS011;41095;53.090;6.692;2022-11-04T12:04:25;2.70;;;1.10;;
53751;SDS011;41095;53.090;6.692;2022-11-04T12:09:29;3.97;;;1.30;;
53751;SDS011;41095;53.090;6.692;2022-11-04T12:30:36;2.90;;;1.67;;
53751;SDS011;41095;53.090;6.692;2022-11-04T12:33:20;4.95;;;1.05;;
53751;SDS011;41095;53.090;6.692;2022-11-04T12:36:08;1.75;;;1.63;;
53751;SDS011;41095;53.090;6.692;2022-11-04T12:39:02;0.95;;;0.75;;
53751;SDS011;41095;53.090;6.692;2022-11-04T12:45:01;3.30;;;1.92;;
53751;SDS011;41095;53.090;6.692;2022-11-04T12:47:49;3.90;;;0.82;;
53751;SDS011;41095;53.090;6.692;2022-11-04T12:58:16;1.60;;;0.90;;
53751;SDS011;41095;53.090;6.692;2022-11-04T13:00:55;3.28;;;1.42;;
53751;SDS011;41095;53.090;6.692;2022-11-04T13:03:33;0.55;;;0.55;;
53751;SDS011;41095;53.090;6.692;2022-11-04T13:06:11;1.17;;;0.80;;
53751;SDS011;41095;53.090;6.692;2022-11-04T13:08:48;2.25;;;1.08;;
53751;SDS011;41095;53.090;6.692;2022-11-04T13:13:50;2.72;;;0.70;;
53751;SDS011;41095;53.090;6.692;2022-11-04T13:16:43;3.03;;;1.00;;
53751;SDS011;41095;53.090;6.692;2022-11-04T13:22:07;0.55;;;0.38;;
53751;SDS011;41095;53.090;6.692;2022-11-04T13:24:39;2.47;;;0.90;;
53751;SDS011;41095;53.090;6.692;2022-11-04T13:27:23;0.60;;;0.57;;
53751;SDS011;41095;53.090;6.692;2022-11-04T13:29:59;0.60;;;0.60;;
53751;SDS011;41095;53.090;6.692;2022-11-04T13:32:38;4.47;;;1.10;;
53751;SDS011;41095;53.090;6.692;2022-11-04T13:38:24;3.30;;;1.20;;
53751;SDS011;41095;53.090;6.692;2022-11-04T13:43:56;2.13;;;0.75;;
53751;SDS011;41095;53.090;6.692;2022-11-04T13:46:25;1.55;;;0.70;;
53751;SDS011;41095;53.090;6.692;2022-11-04T13:51:33;2.05;;;1.08;;
53751;SDS011;41095;53.090;6.692;2022-11-04T13:54:05;1.33;;;0.90;;
53751;SDS011;41095;53.090;6.692;2022-11-04T13:56:48;1.05;;;0.63;;
53751;SDS011;41095;53.090;6.692;2022-11-04T14:04:39;2.22;;;1.13;;
53751;SDS011;41095;53.090;6.692;2022-11-04T14:07:09;2.08;;;1.60;;
53751;SDS011;41095;53.090;6.692;2022-11-04T14:14:54;3.88;;;1.38;;
53751;SDS011;41095;53.090;6.692;2022-11-04T14:22:50;6.93;;;4.40;;
53751;SDS011;41095;53.090;6.692;2022-11-04T14:27:50;2.65;;;1.58;;
53751;SDS011;41095;53.090;6.692;2022-11-04T14:32:58;5.30;;;1.25;;
53751;SDS011;41095;53.090;6.692;2022-11-04T14:35:27;13.25;;;2.33;;
53751;SDS011;41095;53.090;6.692;2022-11-04T14:37:54;5.38;;;1.20;;
53751;SDS011;41095;53.090;6.692;2022-11-04T14:40:27;4.15;;;1.17;;
53751;SDS011;41095;53.090;6.692;2022-11-04T14:43:32;3.53;;;1.95;;
53751;SDS011;41095;53.090;6.692;2022-11-04T14:45:59;1.98;;;1.60;;
53751;SDS011;41095;53.090;6.692;2022-11-04T14:48:26;2.53;;;1.50;;
53751;SDS011;41095;53.090;6.692;2022-11-04T14:50:54;4.22;;;1.95;;
53751;SDS011;41095;53.090;6.692;2022-11-04T14:53:23;3.47;;;1.40;;
53751;SDS011;41095;53.090;6.692;2022-11-04T14:56:05;1.75;;;1.30;;
53751;SDS011;41095;53.090;6.692;2022-11-04T14:58:34;3.95;;;1.75;;
53751;SDS011;41095;53.090;6.692;2022-11-04T15:01:00;3.53;;;1.10;;
53751;SDS011;41095;53.090;6.692;2022-11-04T15:03:31;4.00;;;1.27;;
53751;SDS011;41095;53.090;6.692;2022-11-04T15:06:00;4.30;;;1.20;;
53751;SDS011;41095;53.090;6.692;2022-11-04T15:13:36;2.80;;;1.50;;
53751;SDS011;41095;53.090;6.692;2022-11-04T15:16:19;2.00;;;1.20;;
53751;SDS011;41095;53.090;6.692;2022-11-04T15:18:46;5.03;;;1.73;;
53751;SDS011;41095;53.090;6.692;2022-11-04T15:21:14;4.13;;;1.15;;
53751;SDS011;41095;53.090;6.692;2022-11-04T15:23:41;5.70;;;1.50;;
53751;SDS011;41095;53.090;6.692;2022-11-04T15:26:19;3.17;;;1.30;;
53751;SDS011;41095;53.090;6.692;2022-11-04T15:28:48;2.75;;;1.02;;
53751;SDS011;41095;53.090;6.692;2022-11-04T15:31:16;3.33;;;1.70;;
53751;SDS011;41095;53.090;6.692;2022-11-04T15:33:45;3.15;;;1.15;;
53751;SDS011;41095;53.090;6.692;2022-11-04T15:36:36;3.28;;;1.33;;
53751;SDS011;41095;53.090;6.692;2022-11-04T15:39:13;3.28;;;1.95;;
53751;SDS011;41095;53.090;6.692;2022-11-04T15:42:02;7.38;;;1.63;;
53751;SDS011;41095;53.090;6.692;2022-11-04T15:44:51;4.85;;;1.48;;
53751;SDS011;41095;53.090;6.692;2022-11-04T15:47:20;3.97;;;1.48;;
53751;SDS011;41095;53.090;6.692;2022-11-04T15:49:49;2.20;;;1.25;;
53751;SDS011;41095;53.090;6.692;2022-11-04T15:54:45;3.28;;;1.33;;
53751;SDS011;41095;53.090;6.692;2022-11-04T15:57:20;2.95;;;1.45;;
53751;SDS011;41095;53.090;6.692;2022-11-04T15:59:56;7.32;;;1.55;;
53751;SDS011;41095;53.090;6.692;2022-11-04T16:02:48;5.63;;;1.42;;
53751;SDS011;41095;53.090;6.692;2022-11-04T16:07:51;5.18;;;1.30;;
53751;SDS011;41095;53.090;6.692;2022-11-04T16:10:40;5.68;;;1.55;;
53751;SDS011;41095;53.090;6.692;2022-11-04T16:15:43;3.70;;;1.65;;
53751;SDS011;41095;53.090;6.692;2022-11-04T16:18:23;2.35;;;1.60;;
53751;SDS011;41095;53.090;6.692;2022-11-04T16:21:18;4.30;;;1.17;;
53751;SDS011;41095;53.090;6.692;2022-11-04T16:23:46;4.57;;;1.48;;
53751;SDS011;41095;53.090;6.692;2022-11-04T16:26:15;3.60;;;1.50;;
53751;SDS011;41095;53.090;6.692;2022-11-04T16:28:47;2.85;;;1.70;;
53751;SDS011;41095;53.090;6.692;2022-11-04T16:33:51;3.28;;;1.40;;
53751;SDS011;41095;53.090;6.692;2022-11-04T16:36:16;3.13;;;1.88;;
53751;SDS011;41095;53.090;6.692;2022-11-04T16:38:51;2.60;;;1.80;;
53751;SDS011;41095;53.090;6.692;2022-11-04T16:41:17;3.25;;;1.88;;
53751;SDS011;41095;53.090;6.692;2022-11-04T16:43:44;4.20;;;1.40;;
53751;SDS011;41095;53.090;6.692;2022-11-04T16:46:10;4.55;;;2.40;;
53751;SDS011;41095;53.090;6.692;2022-11-04T16:48:36;5.93;;;2.10;;
53751;SDS011;41095;53.090;6.692;2022-11-04T16:51:02;3.35;;;1.73;;
53751;SDS011;41095;53.090;6.692;2022-11-04T16:53:28;3.53;;;1.50;;
53751;SDS011;41095;53.090;6.692;2022-11-04T16:55:54;3.63;;;2.08;;
53751;SDS011;41095;53.090;6.692;2022-11-04T16:58:21;2.55;;;2.10;;
53751;SDS011;41095;53.090;6.692;2022-11-04T17:00:47;4.25;;;1.95;;
53751;SDS011;41095;53.090;6.692;2022-11-04T17:03:13;3.00;;;1.83;;
53751;SDS011;41095;53.090;6.692;2022-11-04T17:05:49;5.35;;;1.90;;
53751;SDS011;41095;53.090;6.692;2022-11-04T17:08:17;3.35;;;1.75;;
53751;SDS011;41095;53.090;6.692;2022-11-04T17:10:43;5.50;;;2.35;;
53751;SDS011;41095;53.090;6.692;2022-11-04T17:13:10;3.75;;;2.25;;
53751;SDS011;41095;53.090;6.692;2022-11-04T17:15:35;4.65;;;1.90;;
53751;SDS011;41095;53.090;6.692;2022-11-04T17:18:01;2.83;;;1.88;;
53751;SDS011;41095;53.090;6.692;2022-11-04T17:20:27;2.53;;;2.05;;
53751;SDS011;41095;53.090;6.692;2022-11-04T17:22:55;3.58;;;2.03;;
53751;SDS011;41095;53.090;6.692;2022-11-04T17:25:24;2.47;;;1.77;;
53751;SDS011;41095;53.090;6.692;2022-11-04T17:27:52;3.47;;;1.98;;
53751;SDS011;41095;53.090;6.692;2022-11-04T17:30:19;6.78;;;2.78;;
53751;SDS011;41095;53.090;6.692;2022-11-04T17:32:45;7.72;;;2.83;;
53751;SDS011;41095;53.090;6.692;2022-11-04T17:35:12;5.22;;;2.28;;
53751;SDS011;41095;53.090;6.692;2022-11-04T17:37:38;3.50;;;2.30;;
53751;SDS011;41095;53.090;6.692;2022-11-04T17:40:05;7.95;;;2.40;;
53751;SDS011;41095;53.090;6.692;2022-11-04T17:42:32;3.03;;;2.20;;
53751;SDS011;41095;53.090;6.692;2022-11-04T17:45:16;9.63;;;3.33;;
53751;SDS011;41095;53.090;6.692;2022-11-04T17:47:41;5.55;;;2.60;;